Time;durP1;ratioP1;P1;durP2;ratioP2;P2;SDS_P1;SDS_P2;PMS_P1;PMS_P2;Temp;Humidity;BMP_temperature;BMP_pressure;BME280_temperature;BME280_humidity;BME280_pressure;Samples;Min_cycle;Max_cycle;Signal;HPM_P1;HPM_P2
2024/01/18 00:01:51;;;;;;;11.95;3.83;;;;;;;;;;6245191;22;20008;-80
2024/01/18 00:04:18;;;;;;;7.03;3.03;;;;;;;;;;6245115;22;20016;-80
2024/01/18 00:06:45;;;;;;;8.18;4.22;;;;;;;;;;6245856;23;20035;-80
2024/01/18 00:09:12;;;;;;;8.63;4.38;;;;;;;;;;6246672;22;20012;-79
2024/01/18 00:11:38;;;;;;;12.68;4.95;;;;;;;;;;6247277;22;20016;-80
2024/01/18 00:14:05;;;;;;;8.07;4.70;;;;;;;;;;6270685;22;20595;-80
2024/01/18 00:16:33;;;;;;;6.95;4.43;;;;;;;;;;6247078;22;20026;-81
2024/01/18 00:19:00;;;;;;;7.05;4.15;;;;;;;;;;6245487;23;20016;-80
2024/01/18 00:21:28;;;;;;;8.82;5.30;;;;;;;;;;6246668;22;20024;-80
2024/01/18 00:23:55;;;;;;;12.13;6.10;;;;;;;;;;6247286;22;20016;-80
2024/01/18 00:26:21;;;;;;;11.73;6.45;;;;;;;;;;6246636;22;20079;-80
2024/01/18 00:28:48;;;;;;;11.98;6.40;;;;;;;;;;6247515;22;20012;-80
2024/01/18 00:31:15;;;;;;;14.65;7.28;;;;;;;;;;6246719;22;20077;-81
2024/01/18 00:33:42;;;;;;;9.57;6.35;;;;;;;;;;6247477;22;20022;-81
2024/01/18 00:36:09;;;;;;;11.13;5.90;;;;;;;;;;6246544;22;20017;-80
2024/01/18 00:38:36;;;;;;;14.63;6.43;;;;;;;;;;6245673;23;20028;-79
2024/01/18 00:41:03;;;;;;;10.10;6.05;;;;;;;;;;6248107;23;20047;-80
2024/01/18 00:43:30;;;;;;;13.27;6.85;;;;;;;;;;6250353;22;20021;-80
2024/01/18 00:46:02;;;;;;;10.45;6.28;;;;;;;;;;6250703;22;20028;-80
2024/01/18 00:48:29;;;;;;;11.18;7.15;;;;;;;;;;6250691;22;20523;-80
2024/01/18 00:50:56;;;;;;;13.38;6.93;;;;;;;;;;6251333;22;20039;-80
2024/01/18 00:53:23;;;;;;;15.77;7.65;;;;;;;;;;6246964;22;20507;-80
2024/01/18 00:55:52;;;;;;;;;;;;;;;;;;6247873;22;20076;-81
2024/01/18 00:58:19;;;;;;;12.38;8.07;;;;;;;;;;6246390;22;20332;-80
2024/01/18 01:00:47;;;;;;;18.25;8.70;;;;;;;;;;6246843;22;20016;-80
2024/01/18 01:03:14;;;;;;;16.50;8.60;;;;;;;;;;6246023;22;20099;-80
2024/01/18 01:05:41;;;;;;;17.23;8.50;;;;;;;;;;6246884;22;20019;-80
2024/01/18 01:08:07;;;;;;;17.85;8.82;;;;;;;;;;6270029;22;20019;-81
2024/01/18 01:10:34;;;;;;;14.55;8.77;;;;;;;;;;6246682;22;20060;-81
2024/01/18 01:13:01;;;;;;;21.20;9.98;;;;;;;;;;6246759;22;20012;-81
2024/01/18 01:15:28;;;;;;;13.35;9.40;;;;;;;;;;6245891;22;20016;-80
2024/01/18 01:17:54;;;;;;;22.75;9.70;;;;;;;;;;6246301;22;20016;-80
2024/01/18 01:20:21;;;;;;;16.75;8.82;;;;;;;;;;6245722;22;20020;-81
2024/01/18 01:22:48;;;;;;;19.38;10.57;;;;;;;;;;6246990;22;20074;-79
2024/01/18 01:25:15;;;;;;;17.05;9.25;;;;;;;;;;6245641;22;20039;-81
2024/01/18 01:27:41;;;;;;;15.32;9.30;;;;;;;;;;6246683;22;20016;-81
2024/01/18 01:30:10;;;;;;;20.75;10.82;;;;;;;;;;6246507;22;20020;-81
2024/01/18 01:32:37;;;;;;;20.10;10.40;;;;;;;;;;6270301;22;20036;-80
2024/01/18 01:35:05;;;;;;;21.08;10.73;;;;;;;;;;6246092;22;20091;-79
2024/01/18 01:37:32;;;;;;;23.17;11.90;;;;;;;;;;6246619;22;20020;-81
2024/01/18 01:39:59;;;;;;;21.30;11.23;;;;;;;;;;6246348;22;20020;-80
2024/01/18 01:42:25;;;;;;;25.60;11.75;;;;;;;;;;6245901;22;20019;-81
2024/01/18 01:44:54;;;;;;;23.42;10.65;;;;;;;;;;6246204;22;20024;-81
2024/01/18 01:47:21;;;;;;;;;;;;;;;;;;6270187;22;20023;-81
2024/01/18 01:49:48;;;;;;;27.20;11.40;;;;;;;;;;6246308;22;19915;-82
2024/01/18 01:52:17;;;;;;;25.70;11.60;;;;;;;;;;6245854;22;20074;-80
2024/01/18 01:54:47;;;;;;;21.02;11.32;;;;;;;;;;6246481;22;20306;-80
2024/01/18 01:57:16;;;;;;;18.77;10.95;;;;;;;;;;6245628;22;20341;-80
2024/01/18 01:59:43;;;;;;;21.50;10.60;;;;;;;;;;6246077;22;20429;-80
2024/01/18 02:02:12;;;;;;;22.05;11.32;;;;;;;;;;6245961;22;20441;-80
2024/01/18 02:04:39;;;;;;;23.98;10.30;;;;;;;;;;6246190;22;20012;-80
2024/01/18 02:07:08;;;;;;;26.00;11.32;;;;;;;;;;6269561;22;20012;-80
2024/01/18 02:09:35;;;;;;;21.58;11.07;;;;;;;;;;6246075;22;20074;-80
2024/01/18 02:12:03;;;;;;;25.30;11.38;;;;;;;;;;6246155;22;20017;-81
2024/01/18 02:14:30;;;;;;;21.77;10.30;;;;;;;;;;6244304;23;20020;-81
2024/01/18 02:16:57;;;;;;;21.35;11.65;;;;;;;;;;6244587;23;20012;-81
2024/01/18 02:19:24;;;;;;;22.48;12.00;;;;;;;;;;6245419;22;20115;-82
2024/01/18 02:21:51;;;;;;;23.35;11.18;;;;;;;;;;6245929;22;20012;-81
2024/01/18 02:24:34;;;;;;;27.70;11.50;;;;;;;;;;6245777;22;20099;-81
2024/01/18 02:27:01;;;;;;;24.05;10.30;;;;;;;;;;6245926;22;20034;-81
2024/01/18 02:29:27;;;;;;;23.02;10.38;;;;;;;;;;6245866;22;20036;-81
2024/01/18 02:31:54;;;;;;;24.60;11.77;;;;;;;;;;6246198;22;20050;-81
2024/01/18 02:34:21;;;;;;;21.27;11.02;;;;;;;;;;6245710;22;20016;-80
2024/01/18 02:36:48;;;;;;;22.08;9.90;;;;;;;;;;6246801;22;20020;-80
2024/01/18 02:39:14;;;;;;;19.17;10.27;;;;;;;;;;6245689;22;20031;-81
2024/01/18 02:41:41;;;;;;;21.83;9.05;;;;;;;;;;6246385;22;20047;-81
2024/01/18 02:44:08;;;;;;;22.45;8.98;;;;;;;;;;6246152;22;20016;-81
2024/01/18 02:46:35;;;;;;;20.10;8.75;;;;;;;;;;6247066;22;20027;-80
2024/01/18 02:49:02;;;;;;;23.13;9.77;;;;;;;;;;6247501;22;20376;-80
2024/01/18 02:51:31;;;;;;;21.60;9.00;;;;;;;;;;6251055;22;20099;-80
2024/01/18 02:53:58;;;;;;;21.80;9.65;;;;;;;;;;6251369;22;20016;-79
2024/01/18 02:56:25;;;;;;;15.35;8.32;;;;;;;;;;6249020;22;20020;-80
2024/01/18 02:58:52;;;;;;;18.33;8.73;;;;;;;;;;6249466;22;20020;-80
2024/01/18 03:01:19;;;;;;;16.00;7.63;;;;;;;;;;6248417;22;20030;-80
2024/01/18 03:03:45;;;;;;;21.35;8.93;;;;;;;;;;6248624;22;20027;-79
2024/01/18 03:06:13;;;;;;;18.50;7.70;;;;;;;;;;6248749;22;20016;-80
2024/01/18 03:08:40;;;;;;;17.38;8.25;;;;;;;;;;6248824;22;20336;-79
2024/01/18 03:11:07;;;;;;;22.15;7.45;;;;;;;;;;6247563;22;20083;-80
2024/01/18 03:13:34;;;;;;;17.40;7.00;;;;;;;;;;6244664;23;20016;-80
2024/01/18 03:16:00;;;;;;;15.52;6.75;;;;;;;;;;6246660;22;20016;-80
2024/01/18 03:18:27;;;;;;;18.35;7.20;;;;;;;;;;6245671;22;20022;-81
2024/01/18 03:20:55;;;;;;;14.68;6.82;;;;;;;;;;6269634;22;20368;-81
2024/01/18 03:23:21;;;;;;;16.35;7.07;;;;;;;;;;6245122;22;20062;-82
2024/01/18 03:25:48;;;;;;;16.02;6.97;;;;;;;;;;6245429;22;20020;-80
2024/01/18 03:28:15;;;;;;;26.02;8.25;;;;;;;;;;6244821;22;20094;-80
2024/01/18 03:30:41;;;;;;;15.82;7.30;;;;;;;;;;6245653;22;20017;-81
2024/01/18 03:33:08;;;;;;;14.00;6.63;;;;;;;;;;6244987;22;20020;-80
2024/01/18 03:35:35;;;;;;;15.40;7.22;;;;;;;;;;6269387;22;20027;-80
2024/01/18 03:38:02;;;;;;;15.98;6.90;;;;;;;;;;6245731;22;20028;-80
2024/01/18 03:40:29;;;;;;;18.40;7.05;;;;;;;;;;6245758;22;20087;-81
2024/01/18 03:42:56;;;;;;;12.43;6.45;;;;;;;;;;6247556;22;20024;-80
2024/01/18 03:45:22;;;;;;;18.52;6.35;;;;;;;;;;6246638;22;20314;-79
2024/01/18 03:47:49;;;;;;;14.77;6.07;;;;;;;;;;6247599;22;20087;-81
2024/01/18 03:50:16;;;;;;;22.38;6.90;;;;;;;;;;6246953;22;20440;-81
2024/01/18 03:52:43;;;;;;;12.95;5.95;;;;;;;;;;6247602;22;20012;-80
2024/01/18 03:55:10;;;;;;;14.73;6.13;;;;;;;;;;6245013;22;20325;-81
2024/01/18 03:57:37;;;;;;;23.02;6.53;;;;;;;;;;6246018;23;20087;-79
2024/01/18 04:00:05;;;;;;;16.95;6.72;;;;;;;;;;6247178;22;20084;-81
2024/01/18 04:02:32;;;;;;;14.77;5.67;;;;;;;;;;6270854;22;20020;-80
2024/01/18 04:04:58;;;;;;;17.60;7.05;;;;;;;;;;6247322;22;20446;-80
2024/01/18 04:07:25;;;;;;;15.32;5.90;;;;;;;;;;6246498;22;20020;-80
2024/01/18 04:09:52;;;;;;;15.75;5.43;;;;;;;;;;6247042;22;20017;-80
2024/01/18 04:12:18;;;;;;;12.90;5.65;;;;;;;;;;6246700;22;20020;-82
2024/01/18 04:14:45;;;;;;;12.35;5.70;;;;;;;;;;6247269;22;20020;-82
2024/01/18 04:17:12;;;;;;;15.07;5.78;;;;;;;;;;6246811;22;20019;-82
2024/01/18 04:19:39;;;;;;;15.88;5.47;;;;;;;;;;6246913;22;20091;-81
2024/01/18 04:22:07;;;;;;;11.52;5.55;;;;;;;;;;6246544;22;20066;-82
2024/01/18 04:24:33;;;;;;;13.77;5.50;;;;;;;;;;6247041;22;20346;-81
2024/01/18 04:27:00;;;;;;;17.83;5.85;;;;;;;;;;6246849;22;20016;-81
2024/01/18 04:29:28;;;;;;;15.07;5.35;;;;;;;;;;6246552;22;20055;-81
2024/01/18 04:31:55;;;;;;;19.75;5.53;;;;;;;;;;6248597;22;20030;-80
2024/01/18 04:34:22;;;;;;;13.52;5.53;;;;;;;;;;6250081;22;20018;-79
2024/01/18 04:36:48;;;;;;;20.95;5.00;;;;;;;;;;6248398;23;20069;-80
2024/01/18 04:39:16;;;;;;;15.80;5.97;;;;;;;;;;6271228;22;20020;-80
2024/01/18 04:41:42;;;;;;;11.13;4.32;;;;;;;;;;6247158;23;20023;-80
2024/01/18 04:44:09;;;;;;;13.15;5.03;;;;;;;;;;6246691;22;20024;-80
2024/01/18 04:46:37;;;;;;;15.70;5.20;;;;;;;;;;6246830;22;20020;-78
2024/01/18 04:49:03;;;;;;;21.65;5.88;;;;;;;;;;6247105;22;20085;-79
2024/01/18 04:51:30;;;;;;;14.82;4.72;;;;;;;;;;6246616;22;20024;-81
2024/01/18 04:53:57;;;;;;;20.60;5.75;;;;;;;;;;6247228;22;20082;-80
2024/01/18 04:56:24;;;;;;;13.50;4.80;;;;;;;;;;6246461;22;20027;-81
2024/01/18 04:58:51;;;;;;;15.35;4.93;;;;;;;;;;6245336;23;20016;-81
2024/01/18 05:01:17;;;;;;;14.20;5.03;;;;;;;;;;6246099;22;20020;-80
2024/01/18 05:03:45;;;;;;;16.25;5.35;;;;;;;;;;6246864;22;20095;-81
2024/01/18 05:06:12;;;;;;;17.52;4.82;;;;;;;;;;6246518;22;20023;-80
2024/01/18 05:08:39;;;;;;;17.20;5.20;;;;;;;;;;6247066;22;20077;-80
2024/01/18 05:11:06;;;;;;;26.10;5.57;;;;;;;;;;6246452;22;20097;-82
2024/01/18 05:13:33;;;;;;;14.43;4.00;;;;;;;;;;6247047;22;20079;-81
2024/01/18 05:16:01;;;;;;;12.55;3.80;;;;;;;;;;6247562;22;20020;-80
2024/01/18 05:18:28;;;;;;;14.10;4.47;;;;;;;;;;6250512;22;20368;-81
2024/01/18 05:20:55;;;;;;;10.63;4.43;;;;;;;;;;6250956;22;20024;-79
2024/01/18 05:23:22;;;;;;;16.02;6.10;;;;;;;;;;6250805;22;20433;-80
2024/01/18 05:25:49;;;;;;;18.85;4.22;;;;;;;;;;6249402;22;20962;-80
2024/01/18 05:28:16;;;;;;;11.55;4.47;;;;;;;;;;6247468;22;20016;-81
2024/01/18 05:30:42;;;;;;;12.75;3.78;;;;;;;;;;6248176;22;20024;-79
2024/01/18 05:33:09;;;;;;;12.85;4.82;;;;;;;;;;6247348;22;20224;-80
2024/01/18 05:35:36;;;;;;;12.13;3.75;;;;;;;;;;6247921;22;20082;-80
2024/01/18 05:38:03;;;;;;;10.73;3.58;;;;;;;;;;6246658;22;20090;-80
2024/01/18 05:40:31;;;;;;;14.40;3.65;;;;;;;;;;6245950;22;20020;-81
2024/01/18 05:42:58;;;;;;;11.05;3.90;;;;;;;;;;6246466;22;20020;-81
2024/01/18 05:45:25;;;;;;;11.05;4.15;;;;;;;;;;6245371;22;21317;-81
2024/01/18 05:47:52;;;;;;;12.45;3.60;;;;;;;;;;6269977;22;20381;-80
2024/01/18 05:50:19;;;;;;;9.25;3.60;;;;;;;;;;6245596;22;20066;-81
2024/01/18 05:52:46;;;;;;;10.32;3.65;;;;;;;;;;6269889;22;20441;-80
2024/01/18 05:55:13;;;;;;;7.88;3.60;;;;;;;;;;6245449;22;20087;-80
2024/01/18 05:57:41;;;;;;;10.32;3.60;;;;;;;;;;6246085;22;20385;-79
2024/01/18 06:00:09;;;;;;;11.63;3.38;;;;;;;;;;6245316;22;20322;-80
2024/01/18 06:02:36;;;;;;;14.07;4.05;;;;;;;;;;6245906;22;20016;-79
2024/01/18 06:05:03;;;;;;;10.10;3.85;;;;;;;;;;6244330;23;20020;-81
2024/01/18 06:07:29;;;;;;;9.05;3.70;;;;;;;;;;6245628;22;20024;-79
2024/01/18 06:09:56;;;;;;;13.43;3.75;;;;;;;;;;6245920;22;20040;-79
2024/01/18 06:12:23;;;;;;;8.18;3.97;;;;;;;;;;6245209;22;20333;-79
2024/01/18 06:14:50;;;;;;;7.88;3.88;;;;;;;;;;6245901;22;20016;-80
2024/01/18 06:17:16;;;;;;;14.25;4.03;;;;;;;;;;6269228;22;20016;-82
2024/01/18 06:19:43;;;;;;;14.35;4.38;;;;;;;;;;6245830;22;20090;-81
2024/01/18 06:22:10;;;;;;;20.58;9.48;;;;;;;;;;6245351;22;20012;-81
2024/01/18 06:24:37;;;;;;;14.23;5.38;;;;;;;;;;6246387;22;20024;-81
2024/01/18 06:27:04;;;;;;;30.05;11.25;;;;;;;;;;6243694;22;20016;-80
2024/01/18 06:29:31;;;;;;;15.13;4.47;;;;;;;;;;6245744;22;20020;-80
2024/01/18 06:31:58;;;;;;;11.65;4.60;;;;;;;;;;6245869;22;20352;-80
2024/01/18 06:34:24;;;;;;;9.32;3.10;;;;;;;;;;6245276;22;20430;-80
2024/01/18 06:36:51;;;;;;;12.55;4.18;;;;;;;;;;6246007;22;20070;-81
2024/01/18 06:39:18;;;;;;;12.20;3.75;;;;;;;;;;6245271;22;20008;-80
2024/01/18 06:41:45;;;;;;;10.55;4.10;;;;;;;;;;6244198;22;20047;-81
2024/01/18 06:44:12;;;;;;;14.50;5.18;;;;;;;;;;6243269;22;20434;-80
2024/01/18 06:46:38;;;;;;;10.95;3.40;;;;;;;;;;6243982;22;20016;-81
2024/01/18 06:49:05;;;;;;;13.15;3.47;;;;;;;;;;6243505;22;20357;-80
2024/01/18 06:51:32;;;;;;;11.73;3.55;;;;;;;;;;6243972;22;20040;-86
2024/01/18 06:53:59;;;;;;;12.15;3.45;;;;;;;;;;6244325;22;20082;-79
2024/01/18 06:56:25;;;;;;;11.90;4.00;;;;;;;;;;6244160;22;20084;-80
2024/01/18 06:58:52;;;;;;;11.15;4.13;;;;;;;;;;6246619;22;20018;-80
2024/01/18 07:01:19;;;;;;;13.18;3.65;;;;;;;;;;6274580;22;20024;-81
2024/01/18 07:03:46;;;;;;;15.25;3.47;;;;;;;;;;6250345;22;20013;-78
2024/01/18 07:06:13;;;;;;;13.50;3.08;;;;;;;;;;6256492;22;20039;-78
2024/01/18 07:08:39;;;;;;;11.65;3.47;;;;;;;;;;6251041;22;20016;-80
2024/01/18 07:11:06;;;;;;;12.82;3.55;;;;;;;;;;6246300;22;20078;-79
2024/01/18 07:13:33;;;;;;;12.90;3.40;;;;;;;;;;6247045;22;20019;-80
2024/01/18 07:16:00;;;;;;;14.13;3.38;;;;;;;;;;6249509;22;20012;-79
2024/01/18 07:18:27;;;;;;;14.68;3.53;;;;;;;;;;6248616;22;20070;-79
2024/01/18 07:20:54;;;;;;;11.18;2.83;;;;;;;;;;6248466;22;20023;-80
2024/01/18 07:23:20;;;;;;;12.20;2.85;;;;;;;;;;6247147;22;20012;-79
2024/01/18 07:25:47;;;;;;;11.32;2.50;;;;;;;;;;6247667;22;20024;-79
2024/01/18 07:28:14;;;;;;;10.90;3.47;;;;;;;;;;6247225;22;20016;-80
2024/01/18 07:30:41;;;;;;;10.27;2.22;;;;;;;;;;6247691;22;20019;-80
2024/01/18 07:33:07;;;;;;;9.73;2.78;;;;;;;;;;6247151;22;20020;-78
2024/01/18 07:35:34;;;;;;;16.85;2.40;;;;;;;;;;6247702;22;20024;-79
2024/01/18 07:38:01;;;;;;;6.80;2.17;;;;;;;;;;6247817;22;20023;-81
2024/01/18 07:40:28;;;;;;;12.45;2.00;;;;;;;;;;6270774;22;20026;-78
2024/01/18 07:42:55;;;;;;;7.03;2.38;;;;;;;;;;6247660;22;20074;-79
2024/01/18 07:45:21;;;;;;;13.95;3.22;;;;;;;;;;6270778;22;20023;-78
2024/01/18 07:47:49;;;;;;;11.98;2.22;;;;;;;;;;6245975;23;20034;-79
2024/01/18 07:50:16;;;;;;;9.32;2.30;;;;;;;;;;6246974;22;20017;-79
2024/01/18 07:53:00;;;;;;;8.30;2.20;;;;;;;;;;6247409;22;20034;-80
2024/01/18 07:55:28;;;;;;;7.75;2.20;;;;;;;;;;6246876;22;20468;-78
2024/01/18 07:57:56;;;;;;;6.25;3.00;;;;;;;;;;6247511;22;20326;-80
2024/01/18 08:00:22;;;;;;;9.48;2.20;;;;;;;;;;6246467;22;20042;-78
2024/01/18 08:02:50;;;;;;;10.65;2.47;;;;;;;;;;6247325;22;20036;-80
2024/01/18 08:05:17;;;;;;;10.75;2.50;;;;;;;;;;6246840;22;20023;-78
2024/01/18 08:07:43;;;;;;;6.70;2.50;;;;;;;;;;6247552;22;20020;-79
2024/01/18 08:10:10;;;;;;;9.75;3.10;;;;;;;;;;6247010;22;20370;-79
2024/01/18 08:12:37;;;;;;;7.70;2.22;;;;;;;;;;6245696;23;20019;-78
2024/01/18 08:15:05;;;;;;;10.75;2.55;;;;;;;;;;6247270;22;20016;-82
2024/01/18 08:17:32;;;;;;;8.30;2.08;;;;;;;;;;6246956;22;20453;-79
2024/01/18 08:19:59;;;;;;;10.93;1.73;;;;;;;;;;6247302;22;20445;-79
2024/01/18 08:22:27;;;;;;;12.48;2.80;;;;;;;;;;6246753;22;20016;-79
2024/01/18 08:24:55;;;;;;;7.25;2.22;;;;;;;;;;6247139;22;20017;-79
2024/01/18 08:27:23;;;;;;;9.02;2.00;;;;;;;;;;6270558;22;20027;-79
2024/01/18 08:29:50;;;;;;;10.38;2.60;;;;;;;;;;6247882;22;20035;-80
2024/01/18 08:32:17;;;;;;;4.32;1.42;;;;;;;;;;6247555;22;20020;-80
2024/01/18 08:34:44;;;;;;;10.88;2.38;;;;;;;;;;6248628;22;20023;-79
2024/01/18 08:37:12;;;;;;;13.73;2.08;;;;;;;;;;6251809;22;20043;-80
2024/01/18 08:39:39;;;;;;;5.47;1.50;;;;;;;;;;6254284;22;20024;-79
2024/01/18 08:42:07;;;;;;;5.82;1.30;;;;;;;;;;6255379;22;20351;-78
2024/01/18 08:44:33;;;;;;;7.00;1.50;;;;;;;;;;6279482;22;20406;-80
2024/01/18 08:47:00;;;;;;;4.28;1.13;;;;;;;;;;6255682;22;20306;-79
2024/01/18 08:49:27;;;;;;;10.35;2.05;;;;;;;;;;6255138;22;20070;-79
2024/01/18 08:51:54;;;;;;;8.50;2.50;;;;;;;;;;6278820;22;20077;-80
2024/01/18 08:54:21;;;;;;;6.22;1.88;;;;;;;;;;6252501;22;20019;-78
2024/01/18 08:56:48;;;;;;;7.55;1.55;;;;;;;;;;6248246;22;20012;-79
2024/01/18 08:59:15;;;;;;;7.50;1.80;;;;;;;;;;6247623;22;20012;-79
2024/01/18 09:01:42;;;;;;;5.45;1.25;;;;;;;;;;6248191;22;20027;-78
2024/01/18 09:04:09;;;;;;;5.32;1.55;;;;;;;;;;6248249;22;20011;-78
2024/01/18 09:06:37;;;;;;;4.80;1.08;;;;;;;;;;6247617;22;20074;-80
2024/01/18 09:09:09;;;;;;;13.77;2.10;;;;;;;;;;6246065;22;20062;-79
2024/01/18 09:11:40;;;;;;;7.55;1.30;;;;;;;;;;6246775;22;20281;-81
2024/01/18 09:14:07;;;;;;;7.90;1.30;;;;;;;;;;6246187;22;20330;-80
2024/01/18 09:16:33;;;;;;;6.00;1.00;;;;;;;;;;6246604;22;20380;-80
2024/01/18 09:19:01;;;;;;;5.97;1.42;;;;;;;;;;6246547;22;20017;-80
2024/01/18 09:21:41;;;;;;;5.07;1.15;;;;;;;;;;6245802;22;20020;-79
2024/01/18 09:24:09;;;;;;;5.95;1.58;;;;;;;;;;6246052;22;20013;-79
2024/01/18 09:26:35;;;;;;;8.05;2.03;;;;;;;;;;6246716;22;20061;-80
2024/01/18 09:29:02;;;;;;;6.53;1.40;;;;;;;;;;6246407;22;20058;-79
2024/01/18 09:31:29;;;;;;;4.75;1.15;;;;;;;;;;6246159;22;20099;-80
2024/01/18 09:34:08;;;;;;;12.98;3.97;;;;;;;;;;6245810;22;20020;-80
2024/01/18 09:36:35;;;;;;;8.68;1.20;;;;;;;;;;6244920;23;20055;-81
2024/01/18 09:39:03;;;;;;;7.72;1.00;;;;;;;;;;6245952;22;20031;-80
2024/01/18 09:41:30;;;;;;;7.95;1.35;;;;;;;;;;6245680;22;20024;-79
2024/01/18 09:44:03;;;;;;;8.50;1.42;;;;;;;;;;6246391;22;20019;-79
2024/01/18 09:46:30;;;;;;;8.18;1.10;;;;;;;;;;6245767;22;20016;-79
2024/01/18 09:48:58;;;;;;;4.38;1.02;;;;;;;;;;6246224;22;20446;-80
2024/01/18 09:51:30;;;;;;;5.22;1.25;;;;;;;;;;6246047;22;20028;-80
2024/01/18 09:54:00;;;;;;;5.60;1.20;;;;;;;;;;6246235;22;20012;-80
2024/01/18 09:56:28;;;;;;;;;;;;;;;;;;6246543;22;20032;-79
2024/01/18 09:58:56;;;;;;;9.70;4.00;;;;;;;;;;6246179;22;19915;-80
2024/01/18 10:01:24;;;;;;;5.38;1.35;;;;;;;;;;6244076;22;20360;-79
2024/01/18 10:03:51;;;;;;;8.60;1.20;;;;;;;;;;6269932;22;20074;-79
2024/01/18 10:06:19;;;;;;;7.75;1.50;;;;;;;;;;6245717;22;20017;-79
2024/01/18 10:08:51;;;;;;;4.55;1.40;;;;;;;;;;6244845;23;20047;-80
2024/01/18 10:11:19;;;;;;;5.25;1.08;;;;;;;;;;6245627;22;20022;-78
2024/01/18 10:13:55;;;;;;;4.05;1.00;;;;;;;;;;6246092;22;20015;-79
2024/01/18 10:16:33;;;;;;;3.88;1.10;;;;;;;;;;6245638;22;20016;-79
2024/01/18 10:19:02;;;;;;;6.15;1.27;;;;;;;;;;6246097;22;20102;-80
2024/01/18 10:21:31;;;;;;;5.72;1.20;;;;;;;;;;6245546;22;20020;-79
2024/01/18 10:23:58;;;;;;;6.68;1.10;;;;;;;;;;6219794;23;20095;-79
2024/01/18 10:26:29;;;;;;;6.00;1.38;;;;;;;;;;6245353;22;20321;-79
2024/01/18 10:28:56;;;;;;;9.25;1.33;;;;;;;;;;6245967;22;20016;-79
2024/01/18 10:31:26;;;;;;;3.88;1.15;;;;;;;;;;6245344;22;20008;-79
2024/01/18 10:33:55;;;;;;;5.28;1.10;;;;;;;;;;6245810;22;20384;-78
2024/01/18 10:36:21;;;;;;;6.50;1.10;;;;;;;;;;6245371;22;20083;-79
2024/01/18 10:38:49;;;;;;;8.07;1.20;;;;;;;;;;6246097;22;20383;-79
2024/01/18 10:41:19;;;;;;;6.03;1.00;;;;;;;;;;6246643;22;20019;-79
2024/01/18 10:43:51;;;;;;;4.85;0.93;;;;;;;;;;6255192;22;20016;-79
2024/01/18 10:46:19;;;;;;;7.45;0.80;;;;;;;;;;6280016;22;20023;-79
2024/01/18 10:48:49;;;;;;;7.00;1.25;;;;;;;;;;6257633;22;20436;-79
2024/01/18 10:51:16;;;;;;;6.32;0.88;;;;;;;;;;6257203;22;20072;-78
2024/01/18 10:53:45;;;;;;;19.80;1.15;;;;;;;;;;6247349;22;20027;-79
2024/01/18 10:56:12;;;;;;;5.63;1.30;;;;;;;;;;6243733;22;20087;-79
2024/01/18 10:58:39;;;;;;;5.93;0.90;;;;;;;;;;6245553;22;20409;-80
2024/01/18 11:01:07;;;;;;;26.17;5.38;;;;;;;;;;6245327;22;20355;-79
2024/01/18 11:03:35;;;;;;;6.65;1.50;;;;;;;;;;6245659;22;20070;-80
2024/01/18 11:06:09;;;;;;;5.03;0.80;;;;;;;;;;6245762;22;20024;-79
2024/01/18 11:08:38;;;;;;;7.43;2.08;;;;;;;;;;6245350;22;20419;-79
2024/01/18 11:11:05;;;;;;;6.68;1.38;;;;;;;;;;6268951;22;20019;-78
2024/01/18 11:13:33;;;;;;;12.88;2.25;;;;;;;;;;6245787;22;20368;-80
2024/01/18 11:16:00;;;;;;;3.67;0.90;;;;;;;;;;6245677;22;20019;-79
2024/01/18 11:18:27;;;;;;;8.48;1.30;;;;;;;;;;6244957;22;20022;-79
2024/01/18 11:21:04;;;;;;;5.28;1.48;;;;;;;;;;6269375;22;20385;-80
2024/01/18 11:23:41;;;;;;;10.48;1.40;;;;;;;;;;6245473;22;20043;-79
2024/01/18 11:26:17;;;;;;;4.75;0.93;;;;;;;;;;6243663;22;20023;-79
2024/01/18 11:28:44;;;;;;;8.07;1.63;;;;;;;;;;6245670;22;20023;-79
2024/01/18 11:31:11;;;;;;;3.50;1.20;;;;;;;;;;6244946;22;20636;-79
2024/01/18 11:33:38;;;;;;;5.65;1.40;;;;;;;;;;6245553;22;20020;-80
2024/01/18 11:36:08;;;;;;;6.10;0.90;;;;;;;;;;6245296;22;20443;-79
2024/01/18 11:38:44;;;;;;;9.23;0.95;;;;;;;;;;6245499;22;20020;-78
2024/01/18 11:41:21;;;;;;;4.95;1.30;;;;;;;;;;6244843;22;20024;-78
2024/01/18 11:43:52;;;;;;;5.72;1.13;;;;;;;;;;6243895;23;20022;-78
2024/01/18 11:46:37;;;;;;;9.23;1.20;;;;;;;;;;6242952;22;20101;-78
2024/01/18 11:49:05;;;;;;;8.15;1.20;;;;;;;;;;6245047;22;20067;-77
2024/01/18 11:51:32;;;;;;;3.70;1.33;;;;;;;;;;6245463;22;20036;-80
2024/01/18 11:54:00;;;;;;;7.95;1.50;;;;;;;;;;6245701;22;20274;-79
2024/01/18 11:56:28;;;;;;;4.10;0.80;;;;;;;;;;6244941;22;20020;-79
2024/01/18 11:58:59;;;;;;;7.13;1.40;;;;;;;;;;6233072;22;20078;-80
2024/01/18 12:01:31;;;;;;;9.57;1.55;;;;;;;;;;6245963;22;20038;-79
2024/01/18 12:03:59;;;;;;;6.10;0.98;;;;;;;;;;6247426;22;20070;-80
2024/01/18 12:06:28;;;;;;;6.28;0.95;;;;;;;;;;6246640;22;20020;-81
2024/01/18 12:08:56;;;;;;;7.82;1.10;;;;;;;;;;6245916;22;20058;-78
2024/01/18 12:11:23;;;;;;;6.50;1.38;;;;;;;;;;6243243;22;20020;-78
2024/01/18 12:13:50;;;;;;;4.80;1.38;;;;;;;;;;6243822;23;20048;-80
2024/01/18 12:16:20;;;;;;;5.07;1.15;;;;;;;;;;6245263;22;20016;-80
2024/01/18 12:18:47;;;;;;;3.72;0.98;;;;;;;;;;6245651;22;20035;-80
2024/01/18 12:21:19;;;;;;;3.28;0.95;;;;;;;;;;6245003;22;20459;-80
2024/01/18 12:23:47;;;;;;;4.07;1.20;;;;;;;;;;6245381;22;20016;-80
2024/01/18 12:26:15;;;;;;;3.63;1.10;;;;;;;;;;6245117;22;20172;-80
2024/01/18 12:28:41;;;;;;;14.70;1.70;;;;;;;;;;6245640;22;20107;-80
2024/01/18 12:31:09;;;;;;;6.68;1.02;;;;;;;;;;6244717;22;20090;-80
2024/01/18 12:33:37;;;;;;;2.55;1.10;;;;;;;;;;6270887;22;20107;-81
2024/01/18 12:36:04;;;;;;;5.45;1.23;;;;;;;;;;6246547;22;20024;-79
2024/01/18 12:38:35;;;;;;;4.00;1.92;;;;;;;;;;6245902;22;20027;-80
2024/01/18 12:41:02;;;;;;;7.80;1.50;;;;;;;;;;6246952;22;20020;-80
2024/01/18 12:43:28;;;;;;;5.43;1.52;;;;;;;;;;6246522;22;20020;-80
2024/01/18 12:45:56;;;;;;;3.53;1.60;;;;;;;;;;6247043;22;20020;-80
2024/01/18 12:48:23;;;;;;;5.23;2.03;;;;;;;;;;6246275;22;20441;-79
2024/01/18 12:50:51;;;;;;;8.55;2.00;;;;;;;;;;6247268;22;20016;-80
2024/01/18 12:53:18;;;;;;;6.47;1.48;;;;;;;;;;6246432;22;20023;-79
2024/01/18 12:55:45;;;;;;;4.60;1.35;;;;;;;;;;6247197;22;20020;-78
2024/01/18 12:58:15;;;;;;;4.75;1.27;;;;;;;;;;6247418;22;20043;-79
2024/01/18 13:00:42;;;;;;;5.90;1.30;;;;;;;;;;6274073;22;20020;-79
2024/01/18 13:03:17;;;;;;;8.18;1.25;;;;;;;;;;6250211;22;20040;-78
2024/01/18 13:05:46;;;;;;;5.65;1.15;;;;;;;;;;6251208;22;20389;-79
2024/01/18 13:08:15;;;;;;;4.43;1.08;;;;;;;;;;6250752;22;20016;-80
2024/01/18 13:10:44;;;;;;;3.65;0.70;;;;;;;;;;6250545;22;20036;-81
2024/01/18 13:13:11;;;;;;;3.70;1.05;;;;;;;;;;6248936;22;20020;-79
2024/01/18 13:15:38;;;;;;;6.78;0.98;;;;;;;;;;6247186;22;20087;-78
2024/01/18 13:18:09;;;;;;;3.70;1.23;;;;;;;;;;6246523;22;20027;-80
2024/01/18 13:20:37;;;;;;;4.05;1.17;;;;;;;;;;6245117;23;20024;-80
2024/01/18 13:23:09;;;;;;;4.30;0.95;;;;;;;;;;6246148;22;20016;-79
2024/01/18 13:25:36;;;;;;;2.78;1.00;;;;;;;;;;6246634;22;20078;-80
2024/01/18 13:28:04;;;;;;;3.25;0.90;;;;;;;;;;6246619;22;20035;-79
2024/01/18 13:30:31;;;;;;;5.13;0.90;;;;;;;;;;6269659;22;20437;-78
2024/01/18 13:32:59;;;;;;;9.07;2.00;;;;;;;;;;6246379;22;20040;-81
2024/01/18 13:35:33;;;;;;;3.90;0.60;;;;;;;;;;6246099;22;20099;-80
2024/01/18 13:38:00;;;;;;;3.00;0.77;;;;;;;;;;6246358;22;20016;-79
2024/01/18 13:40:27;;;;;;;3.22;0.60;;;;;;;;;;6269442;22;20529;-79
2024/01/18 13:42:53;;;;;;;4.45;0.70;;;;;;;;;;6246318;22;20022;-80
2024/01/18 13:45:23;;;;;;;2.15;0.73;;;;;;;;;;6245570;22;20437;-79
2024/01/18 13:47:50;;;;;;;3.13;0.60;;;;;;;;;;6246549;22;20062;-79
2024/01/18 13:50:21;;;;;;;3.17;0.80;;;;;;;;;;6245636;22;20356;-78
2024/01/18 13:52:48;;;;;;;4.30;0.70;;;;;;;;;;6246399;22;20066;-80
2024/01/18 13:55:16;;;;;;;5.32;0.73;;;;;;;;;;6245820;22;20083;-80
2024/01/18 13:57:43;;;;;;;1.73;0.60;;;;;;;;;;6246092;22;20012;-80
2024/01/18 14:00:11;;;;;;;5.00;0.50;;;;;;;;;;6245678;22;20044;-78
2024/01/18 14:02:39;;;;;;;2.95;0.43;;;;;;;;;;6246148;22;20016;-80
2024/01/18 14:05:07;;;;;;;3.97;0.98;;;;;;;;;;6245264;22;20019;-80
2024/01/18 14:07:33;;;;;;;6.68;0.52;;;;;;;;;;6246078;22;20020;-80
2024/01/18 14:10:01;;;;;;;1.33;0.40;;;;;;;;;;6246310;22;20468;-80
2024/01/18 14:12:28;;;;;;;2.67;1.08;;;;;;;;;;6245619;22;20036;-79
2024/01/18 14:14:55;;;;;;;4.93;0.55;;;;;;;;;;6246091;22;20012;-80
2024/01/18 14:17:21;;;;;;;2.95;0.40;;;;;;;;;;6245462;22;20012;-80
2024/01/18 14:19:49;;;;;;;2.88;0.40;;;;;;;;;;6270064;22;20022;-80
2024/01/18 14:22:16;;;;;;;3.00;0.80;;;;;;;;;;6245391;22;20040;-79
2024/01/18 14:24:43;;;;;;;2.25;0.57;;;;;;;;;;6245580;22;20437;-78
2024/01/18 14:27:11;;;;;;;4.25;0.93;;;;;;;;;;6245454;22;20016;-79
2024/01/18 14:29:38;;;;;;;2.33;0.35;;;;;;;;;;6246025;22;20328;-80
2024/01/18 14:32:06;;;;;;;2.38;0.32;;;;;;;;;;6245307;22;20428;-79
2024/01/18 14:34:33;;;;;;;3.45;0.40;;;;;;;;;;6246085;22;20074;-78
2024/01/18 14:37:00;;;;;;;2.25;0.38;;;;;;;;;;6245865;22;20024;-79
2024/01/18 14:39:27;;;;;;;2.30;0.73;;;;;;;;;;6245457;22;20012;-80